Charter Quote
Worldwide +1-877-727-2538 Call
Select Language Lang
SAFETY RELIABILITY EXPERIENCE

Private Jet Charter Services - Jiamusi Airport (ZYJM)

Paramount Business Jets offers private jet charter flights and luxury airliner charters to and from Jiamusi Airport.

AIRPORT INFORMATION
ICAOZYJM
LOCATIONJiamusi, China
FACILITY TYPEAIRPORT

At Paramount Business Jets you can hire chartered private jets to and from Jiamusi Airport with as little as 4 hours of notice. All flights booked via Paramount Business Jets are operated by certified direct air carriers that meet and exceed the FAA part 135 and 121 protocol or a foreign equivalent safety authority. Furthermore, Paramount Business Jets subscribes to ARGUS for their third party safety checks of operators, aircraft, and crews prior each and every flight to and from Jiamusi Airport and worldwide.

  • Quote a trip using Jiamusi Airport or call us 24/7 - 365 days a year at +1-877-727-2538.
Questions? Call +1-877-727-2538

METAR Weather Data at Jiamusi Airport, ZYJM

STATIONZYJM
OBSERVEDSat Aug 23, 03:00 UTC
NOWThu Nov 14, 17:11 UTC
AGE45830:11 hr ago
WINDENE at 4 mph
VISIBILITY16 miles
CLOUDSscattered clouds
TEMP79°F (26°C)
DEWPT68°F (20°C)
HUMIDITY70%
BAROMETER1006 hPa (29.71 in Hg)
METARZYJM 230300Z 07002MPS 9999 FEW030CB SCT026 26/20 Q1006 NOSIG

Call us on +1-877-727-2538 (24 Hours), Check our Pricing, or Get a Quick Quote.

Find Airports Near any Location

Processing
...